This is the latest recevied weather packets stored in our database for station/object AD8BV. If no packets are shown the sender has not sent any weather packets the latest 10 day(s).
| Time | Temp. | Humidity | Pressure | Rain* | Wind** | Luminosity | Snow |
|---|---|---|---|---|---|---|---|
| 1777944997 | 18.33° C | 75% | 1001.3 hPa | 0 mm | - | 0 W/m² | - |
| 1777944694 | 18.33° C | 76% | 1001.1 hPa | 0 mm | - | 0 W/m² | - |
| 1777944392 | 17.78° C | 76% | 1001.1 hPa | 0 mm | - | 0 W/m² | - |
| 1777944088 | 17.78° C | 76% | 1001 hPa | 0 mm | - | 0 W/m² | - |
| 1777943784 | 17.78° C | 79% | 1001.1 hPa | 0 mm | - | 0 W/m² | - |
| 1777943482 | 16.67° C | 83% | 1001.1 hPa | 0 mm | - | 0 W/m² | - |
| 1777943177 | 16.11° C | 85% | 1001.3 hPa | 0 mm | - | 0 W/m² | - |
| 1777942874 | 16.67° C | 86% | 1001.1 hPa | 0 mm | - | 0 W/m² | - |
| 1777942570 | 16.67° C | 87% | 1001.4 hPa | 0 mm | - | 0 W/m² | - |
| 1777942267 | 17.22° C | 86% | 1001.1 hPa | 4.32 mm | - | 0 W/m² | - |
| 1777941964 | 18.33° C | 80% | 1000.9 hPa | 4.32 mm | - | 0 W/m² | - |
| 1777941661 | 20° C | 66% | 1001.2 hPa | 0 mm | - | 1 W/m² | - |
| 1777941358 | 20° C | 66% | 1001 hPa | 0 mm | - | 2 W/m² | - |
| 1777941055 | 20° C | 67% | 1000.9 hPa | 0 mm | - | 4 W/m² | - |
| 1777940750 | 20.56° C | 66% | 1001 hPa | 0 mm | - | 9 W/m² | - |
| 1777940449 | 20.56° C | 64% | 1001 hPa | 0 mm | - | 23 W/m² | - |
| 1777940146 | 20° C | 65% | 1000.9 hPa | 0 mm | - | 14 W/m² | - |
| 1777939843 | 20.56° C | 64% | 1000.8 hPa | 0 mm | - | 8 W/m² | - |
| 1777939541 | 20° C | 64% | 1000.6 hPa | 0 mm | - | 16 W/m² | - |
| 1777939238 | 20.56° C | 64% | 1000.5 hPa | 0 mm | - | 19 W/m² | - |
| 1777938935 | 20.56° C | 64% | 1000.5 hPa | 0 mm | - | 19 W/m² | - |
| 1777938631 | 20.56° C | 64% | 1000.6 hPa | 0 mm | - | 37 W/m² | - |
| 1777938328 | 20.56° C | 64% | 1000.5 hPa | 0 mm | - | 23 W/m² | - |
| 1777938025 | 20.56° C | 63% | 1000.5 hPa | 0 mm | - | 25 W/m² | - |
| 1777937721 | 21.11° C | 63% | 1000.8 hPa | 0 mm | - | 42 W/m² | - |
* Rain latest hour (hover to see other rain measurements)
** Current wind speed in m/s (hover to see current wind gust speed)